sensor_id;sensor_type;location;lat;lon;timestamp;temperature;humidity
32877;DHT22;19226;51.600;8.034;2022-07-23T00:00:04;18.70;99.90
32877;DHT22;19226;51.600;8.034;2022-07-23T00:02:33;18.70;99.90
32877;DHT22;19226;51.600;8.034;2022-07-23T00:04:59;18.60;99.90
32877;DHT22;19226;51.600;8.034;2022-07-23T00:07:25;18.60;99.90
32877;DHT22;19226;51.600;8.034;2022-07-23T00:09:54;18.50;99.90
32877;DHT22;19226;51.600;8.034;2022-07-23T00:12:20;18.40;99.90
32877;DHT22;19226;51.600;8.034;2022-07-23T00:14:46;18.40;99.90
32877;DHT22;19226;51.600;8.034;2022-07-23T00:17:12;18.50;99.90
32877;DHT22;19226;51.600;8.034;2022-07-23T00:19:39;18.50;99.90
32877;DHT22;19226;51.600;8.034;2022-07-23T00:22:05;18.50;99.90
32877;DHT22;19226;51.600;8.034;2022-07-23T00:24:31;18.50;99.90
32877;DHT22;19226;51.600;8.034;2022-07-23T00:26:57;18.50;99.90
32877;DHT22;19226;51.600;8.034;2022-07-23T00:29:23;18.50;99.90
32877;DHT22;19226;51.600;8.034;2022-07-23T00:31:49;18.50;99.90
32877;DHT22;19226;51.600;8.034;2022-07-23T00:34:16;18.50;99.90
32877;DHT22;19226;51.600;8.034;2022-07-23T00:36:42;18.50;99.90
32877;DHT22;19226;51.600;8.034;2022-07-23T00:39:27;18.50;99.90
32877;DHT22;19226;51.600;8.034;2022-07-23T00:41:53;18.50;99.90
32877;DHT22;19226;51.600;8.034;2022-07-23T00:44:23;18.50;99.90
32877;DHT22;19226;51.600;8.034;2022-07-23T00:46:54;18.50;99.90
32877;DHT22;19226;51.600;8.034;2022-07-23T00:49:22;18.50;99.90
32877;DHT22;19226;51.600;8.034;2022-07-23T00:51:48;18.50;99.90
32877;DHT22;19226;51.600;8.034;2022-07-23T00:54:17;18.50;99.90
32877;DHT22;19226;51.600;8.034;2022-07-23T00:56:44;18.50;99.90
32877;DHT22;19226;51.600;8.034;2022-07-23T00:59:12;18.40;99.90
32877;DHT22;19226;51.600;8.034;2022-07-23T01:01:38;18.30;99.90
32877;DHT22;19226;51.600;8.034;2022-07-23T01:04:25;18.30;99.90
32877;DHT22;19226;51.600;8.034;2022-07-23T01:06:51;18.30;99.90
32877;DHT22;19226;51.600;8.034;2022-07-23T01:09:19;18.20;99.90
32877;DHT22;19226;51.600;8.034;2022-07-23T01:11:45;18.10;99.90
32877;DHT22;19226;51.600;8.034;2022-07-23T01:14:17;18.10;99.90
32877;DHT22;19226;51.600;8.034;2022-07-23T01:16:46;18.10;99.90
32877;DHT22;19226;51.600;8.034;2022-07-23T01:19:13;18.10;99.90
32877;DHT22;19226;51.600;8.034;2022-07-23T01:21:48;18.10;99.90
32877;DHT22;19226;51.600;8.034;2022-07-23T01:24:15;18.10;99.90
32877;DHT22;19226;51.600;8.034;2022-07-23T01:26:52;18.00;99.90
32877;DHT22;19226;51.600;8.034;2022-07-23T01:29:21;17.90;99.90
32877;DHT22;19226;51.600;8.034;2022-07-23T01:31:48;17.90;99.90
32877;DHT22;19226;51.600;8.034;2022-07-23T01:34:14;17.90;99.90
32877;DHT22;19226;51.600;8.034;2022-07-23T01:36:42;17.80;99.90
32877;DHT22;19226;51.600;8.034;2022-07-23T01:39:09;17.80;99.90
32877;DHT22;19226;51.600;8.034;2022-07-23T01:41:57;17.90;99.90
32877;DHT22;19226;51.600;8.034;2022-07-23T01:44:24;17.90;99.90
32877;DHT22;19226;51.600;8.034;2022-07-23T01:46:51;17.90;99.90
32877;DHT22;19226;51.600;8.034;2022-07-23T01:49:19;17.90;99.90
32877;DHT22;19226;51.600;8.034;2022-07-23T01:52:03;17.90;99.90
32877;DHT22;19226;51.600;8.034;2022-07-23T01:54:40;17.90;99.90
32877;DHT22;19226;51.600;8.034;2022-07-23T01:57:08;17.90;99.90
32877;DHT22;19226;51.600;8.034;2022-07-23T01:59:35;17.90;99.90
32877;DHT22;19226;51.600;8.034;2022-07-23T02:02:02;17.90;99.90
32877;DHT22;19226;51.600;8.034;2022-07-23T02:04:30;17.90;99.90
32877;DHT22;19226;51.600;8.034;2022-07-23T02:06:56;17.90;99.90
32877;DHT22;19226;51.600;8.034;2022-07-23T02:09:22;17.90;99.90
32877;DHT22;19226;51.600;8.034;2022-07-23T02:11:51;17.90;99.90
32877;DHT22;19226;51.600;8.034;2022-07-23T02:14:18;18.00;99.90
32877;DHT22;19226;51.600;8.034;2022-07-23T02:16:45;18.00;99.90
32877;DHT22;19226;51.600;8.034;2022-07-23T02:19:12;18.00;99.90
32877;DHT22;19226;51.600;8.034;2022-07-23T02:21:39;17.80;99.90
32877;DHT22;19226;51.600;8.034;2022-07-23T02:24:05;17.70;99.90
32877;DHT22;19226;51.600;8.034;2022-07-23T02:26:31;17.80;99.90
32877;DHT22;19226;51.600;8.034;2022-07-23T02:29:05;17.70;99.90
32877;DHT22;19226;51.600;8.034;2022-07-23T02:31:32;17.80;99.90
32877;DHT22;19226;51.600;8.034;2022-07-23T02:33:58;17.80;99.90
32877;DHT22;19226;51.600;8.034;2022-07-23T02:36:28;17.90;99.90
32877;DHT22;19226;51.600;8.034;2022-07-23T02:38:55;17.80;99.90
32877;DHT22;19226;51.600;8.034;2022-07-23T02:41:21;17.80;99.90
32877;DHT22;19226;51.600;8.034;2022-07-23T02:43:48;17.80;99.90
32877;DHT22;19226;51.600;8.034;2022-07-23T02:46:14;17.60;99.90
32877;DHT22;19226;51.600;8.034;2022-07-23T02:48:42;17.60;99.90
32877;DHT22;19226;51.600;8.034;2022-07-23T02:51:08;17.60;99.90
32877;DHT22;19226;51.600;8.034;2022-07-23T02:53:39;17.70;99.90
32877;DHT22;19226;51.600;8.034;2022-07-23T02:56:05;17.70;99.90
32877;DHT22;19226;51.600;8.034;2022-07-23T02:58:31;17.70;99.90
32877;DHT22;19226;51.600;8.034;2022-07-23T03:00:57;17.70;99.90
32877;DHT22;19226;51.600;8.034;2022-07-23T03:03:25;17.70;99.90
32877;DHT22;19226;51.600;8.034;2022-07-23T03:05:51;17.70;99.90
32877;DHT22;19226;51.600;8.034;2022-07-23T03:08:18;17.70;99.90
32877;DHT22;19226;51.600;8.034;2022-07-23T03:10:49;17.60;99.90
32877;DHT22;19226;51.600;8.034;2022-07-23T03:13:16;17.60;99.90
32877;DHT22;19226;51.600;8.034;2022-07-23T03:15:42;17.60;99.90
32877;DHT22;19226;51.600;8.034;2022-07-23T03:18:08;17.60;99.90
32877;DHT22;19226;51.600;8.034;2022-07-23T03:20:34;17.60;99.90
32877;DHT22;19226;51.600;8.034;2022-07-23T03:23:01;17.60;99.90
32877;DHT22;19226;51.600;8.034;2022-07-23T03:25:28;17.60;99.90
32877;DHT22;19226;51.600;8.034;2022-07-23T03:27:55;17.60;99.90
32877;DHT22;19226;51.600;8.034;2022-07-23T03:30:21;17.60;99.90
32877;DHT22;19226;51.600;8.034;2022-07-23T03:32:49;17.50;99.90
32877;DHT22;19226;51.600;8.034;2022-07-23T03:35:15;17.50;99.90
32877;DHT22;19226;51.600;8.034;2022-07-23T03:37:49;17.50;99.90
32877;DHT22;19226;51.600;8.034;2022-07-23T03:40:16;17.40;99.90
32877;DHT22;19226;51.600;8.034;2022-07-23T03:42:51;17.40;99.90
32877;DHT22;19226;51.600;8.034;2022-07-23T03:45:17;17.40;99.90
32877;DHT22;19226;51.600;8.034;2022-07-23T03:47:43;17.40;99.90
32877;DHT22;19226;51.600;8.034;2022-07-23T03:50:11;17.30;99.90
32877;DHT22;19226;51.600;8.034;2022-07-23T03:52:37;17.30;99.90
32877;DHT22;19226;51.600;8.034;2022-07-23T03:55:05;17.30;99.90
32877;DHT22;19226;51.600;8.034;2022-07-23T03:57:31;17.30;99.90
32877;DHT22;19226;51.600;8.034;2022-07-23T03:59:58;17.30;99.90
32877;DHT22;19226;51.600;8.034;2022-07-23T04:02:25;17.30;99.90
32877;DHT22;19226;51.600;8.034;2022-07-23T04:04:51;17.30;99.90
32877;DHT22;19226;51.600;8.034;2022-07-23T04:07:18;17.20;99.90
32877;DHT22;19226;51.600;8.034;2022-07-23T04:09:44;17.30;99.90
32877;DHT22;19226;51.600;8.034;2022-07-23T04:12:13;17.30;99.90
32877;DHT22;19226;51.600;8.034;2022-07-23T04:14:40;17.20;99.90
32877;DHT22;19226;51.600;8.034;2022-07-23T04:17:06;17.10;99.90
32877;DHT22;19226;51.600;8.034;2022-07-23T04:19:33;17.10;99.90
32877;DHT22;19226;51.600;8.034;2022-07-23T04:22:03;17.10;99.90
32877;DHT22;19226;51.600;8.034;2022-07-23T04:24:32;17.00;99.90
32877;DHT22;19226;51.600;8.034;2022-07-23T04:26:59;17.00;99.90
32877;DHT22;19226;51.600;8.034;2022-07-23T04:29:25;17.00;99.90
32877;DHT22;19226;51.600;8.034;2022-07-23T04:31:51;17.00;99.90
32877;DHT22;19226;51.600;8.034;2022-07-23T04:34:18;17.10;99.90
32877;DHT22;19226;51.600;8.034;2022-07-23T04:36:44;17.00;99.90
32877;DHT22;19226;51.600;8.034;2022-07-23T04:39:10;17.00;99.90
32877;DHT22;19226;51.600;8.034;2022-07-23T04:41:37;17.00;99.90
32877;DHT22;19226;51.600;8.034;2022-07-23T04:44:06;17.00;99.90
32877;DHT22;19226;51.600;8.034;2022-07-23T04:46:33;17.00;99.90
32877;DHT22;19226;51.600;8.034;2022-07-23T04:48:59;17.00;99.90
32877;DHT22;19226;51.600;8.034;2022-07-23T04:51:26;17.00;99.90
32877;DHT22;19226;51.600;8.034;2022-07-23T04:53:53;17.00;99.90
32877;DHT22;19226;51.600;8.034;2022-07-23T04:56:22;17.10;99.90
32877;DHT22;19226;51.600;8.034;2022-07-23T04:58:49;17.10;99.90
32877;DHT22;19226;51.600;8.034;2022-07-23T05:01:17;17.10;99.90
32877;DHT22;19226;51.600;8.034;2022-07-23T05:03:44;17.00;99.90
32877;DHT22;19226;51.600;8.034;2022-07-23T05:06:11;17.10;99.90
32877;DHT22;19226;51.600;8.034;2022-07-23T05:08:37;17.10;99.90
32877;DHT22;19226;51.600;8.034;2022-07-23T05:11:05;17.10;99.90
32877;DHT22;19226;51.600;8.034;2022-07-23T05:13:31;17.00;99.90
32877;DHT22;19226;51.600;8.034;2022-07-23T05:15:57;17.10;99.90
32877;DHT22;19226;51.600;8.034;2022-07-23T05:18:25;17.10;99.90
32877;DHT22;19226;51.600;8.034;2022-07-23T05:20:53;17.10;99.90
32877;DHT22;19226;51.600;8.034;2022-07-23T05:23:21;17.10;99.90
32877;DHT22;19226;51.600;8.034;2022-07-23T05:25:48;17.20;99.90
32877;DHT22;19226;51.600;8.034;2022-07-23T05:28:16;17.10;99.90
32877;DHT22;19226;51.600;8.034;2022-07-23T05:30:43;17.20;99.90
32877;DHT22;19226;51.600;8.034;2022-07-23T05:33:14;17.20;99.90
32877;DHT22;19226;51.600;8.034;2022-07-23T05:36:03;17.20;99.90
32877;DHT22;19226;51.600;8.034;2022-07-23T05:38:32;17.20;99.90
32877;DHT22;19226;51.600;8.034;2022-07-23T05:41:01;17.20;99.90
32877;DHT22;19226;51.600;8.034;2022-07-23T05:43:29;17.30;99.90
32877;DHT22;19226;51.600;8.034;2022-07-23T05:45:57;17.20;99.90
32877;DHT22;19226;51.600;8.034;2022-07-23T05:48:24;17.30;99.90
32877;DHT22;19226;51.600;8.034;2022-07-23T05:51:35;17.30;99.90
32877;DHT22;19226;51.600;8.034;2022-07-23T05:54:02;17.40;99.90
32877;DHT22;19226;51.600;8.034;2022-07-23T05:56:33;17.40;99.90
32877;DHT22;19226;51.600;8.034;2022-07-23T05:58:59;17.40;99.90
32877;DHT22;19226;51.600;8.034;2022-07-23T06:01:26;17.40;99.90
32877;DHT22;19226;51.600;8.034;2022-07-23T06:04:00;17.50;99.90
32877;DHT22;19226;51.600;8.034;2022-07-23T06:06:53;17.60;99.90
32877;DHT22;19226;51.600;8.034;2022-07-23T06:09:19;17.50;99.90
32877;DHT22;19226;51.600;8.034;2022-07-23T06:11:45;17.50;99.90
32877;DHT22;19226;51.600;8.034;2022-07-23T06:14:11;17.50;99.90
32877;DHT22;19226;51.600;8.034;2022-07-23T06:16:53;17.50;99.90
32877;DHT22;19226;51.600;8.034;2022-07-23T06:19:29;17.50;99.90
32877;DHT22;19226;51.600;8.034;2022-07-23T06:21:56;17.50;99.90
32877;DHT22;19226;51.600;8.034;2022-07-23T06:24:22;17.50;99.90
32877;DHT22;19226;51.600;8.034;2022-07-23T06:26:49;17.50;99.90
32877;DHT22;19226;51.600;8.034;2022-07-23T06:29:16;17.60;99.90
32877;DHT22;19226;51.600;8.034;2022-07-23T06:31:45;17.60;99.90
32877;DHT22;19226;51.600;8.034;2022-07-23T06:34:14;17.70;99.90
32877;DHT22;19226;51.600;8.034;2022-07-23T06:36:40;17.80;99.90
32877;DHT22;19226;51.600;8.034;2022-07-23T06:39:07;17.80;99.90
32877;DHT22;19226;51.600;8.034;2022-07-23T06:41:33;17.90;99.90
32877;DHT22;19226;51.600;8.034;2022-07-23T06:44:00;18.00;99.90
32877;DHT22;19226;51.600;8.034;2022-07-23T06:46:29;18.00;99.90
32877;DHT22;19226;51.600;8.034;2022-07-23T06:48:56;18.00;99.90
32877;DHT22;19226;51.600;8.034;2022-07-23T06:51:22;18.10;99.90
32877;DHT22;19226;51.600;8.034;2022-07-23T06:53:48;18.20;99.90
32877;DHT22;19226;51.600;8.034;2022-07-23T06:56:14;18.30;99.90
32877;DHT22;19226;51.600;8.034;2022-07-23T06:58:40;18.40;99.90
32877;DHT22;19226;51.600;8.034;2022-07-23T07:01:06;18.50;99.90
32877;DHT22;19226;51.600;8.034;2022-07-23T07:03:34;18.50;99.90
32877;DHT22;19226;51.600;8.034;2022-07-23T07:06:00;18.60;99.90
32877;DHT22;19226;51.600;8.034;2022-07-23T07:11:16;18.80;99.90
32877;DHT22;19226;51.600;8.034;2022-07-23T07:13:42;18.80;99.90
32877;DHT22;19226;51.600;8.034;2022-07-23T07:16:08;18.80;99.90
32877;DHT22;19226;51.600;8.034;2022-07-23T07:18:35;18.80;99.90
32877;DHT22;19226;51.600;8.034;2022-07-23T07:21:04;19.00;99.90
32877;DHT22;19226;51.600;8.034;2022-07-23T07:23:30;19.10;99.90
32877;DHT22;19226;51.600;8.034;2022-07-23T07:25:56;19.20;99.90
32877;DHT22;19226;51.600;8.034;2022-07-23T07:28:23;19.20;99.90
32877;DHT22;19226;51.600;8.034;2022-07-23T07:30:49;19.20;99.90
32877;DHT22;19226;51.600;8.034;2022-07-23T07:33:15;19.20;99.90
32877;DHT22;19226;51.600;8.034;2022-07-23T07:35:41;19.30;99.90
32877;DHT22;19226;51.600;8.034;2022-07-23T07:38:07;19.20;99.90
32877;DHT22;19226;51.600;8.034;2022-07-23T07:40:34;19.40;99.90
32877;DHT22;19226;51.600;8.034;2022-07-23T07:43:00;19.40;99.90
32877;DHT22;19226;51.600;8.034;2022-07-23T07:45:27;19.60;99.90
32877;DHT22;19226;51.600;8.034;2022-07-23T07:47:53;19.70;99.90
32877;DHT22;19226;51.600;8.034;2022-07-23T07:50:20;19.90;99.90
32877;DHT22;19226;51.600;8.034;2022-07-23T07:52:47;20.00;99.90
32877;DHT22;19226;51.600;8.034;2022-07-23T07:55:14;20.10;99.90
32877;DHT22;19226;51.600;8.034;2022-07-23T07:57:40;20.30;99.90
32877;DHT22;19226;51.600;8.034;2022-07-23T08:00:08;20.30;99.90
32877;DHT22;19226;51.600;8.034;2022-07-23T08:02:45;20.40;99.90
32877;DHT22;19226;51.600;8.034;2022-07-23T08:05:13;20.40;99.90
32877;DHT22;19226;51.600;8.034;2022-07-23T08:07:40;20.50;99.90
32877;DHT22;19226;51.600;8.034;2022-07-23T08:10:10;20.50;99.90
32877;DHT22;19226;51.600;8.034;2022-07-23T08:15:11;20.70;99.90
32877;DHT22;19226;51.600;8.034;2022-07-23T08:17:40;20.90;99.90
32877;DHT22;19226;51.600;8.034;2022-07-23T08:20:08;21.10;99.90
32877;DHT22;19226;51.600;8.034;2022-07-23T08:25:12;21.40;99.90
32877;DHT22;19226;51.600;8.034;2022-07-23T08:27:40;21.40;99.90
32877;DHT22;19226;51.600;8.034;2022-07-23T08:30:09;21.40;99.90
32877;DHT22;19226;51.600;8.034;2022-07-23T08:35:35;21.30;99.90
32877;DHT22;19226;51.600;8.034;2022-07-23T08:38:05;21.40;99.90
32877;DHT22;19226;51.600;8.034;2022-07-23T08:40:36;21.50;99.90
32877;DHT22;19226;51.600;8.034;2022-07-23T08:43:09;21.70;99.90
32877;DHT22;19226;51.600;8.034;2022-07-23T08:45:39;21.60;99.90
32877;DHT22;19226;51.600;8.034;2022-07-23T08:48:08;21.70;99.90
32877;DHT22;19226;51.600;8.034;2022-07-23T08:50:36;21.70;99.90
32877;DHT22;19226;51.600;8.034;2022-07-23T08:53:05;21.80;99.90
32877;DHT22;19226;51.600;8.034;2022-07-23T08:55:33;21.90;99.90
32877;DHT22;19226;51.600;8.034;2022-07-23T08:58:01;22.00;99.90
32877;DHT22;19226;51.600;8.034;2022-07-23T09:00:46;22.20;99.90
32877;DHT22;19226;51.600;8.034;2022-07-23T09:03:17;22.30;99.90
32877;DHT22;19226;51.600;8.034;2022-07-23T09:05:45;22.40;99.90
32877;DHT22;19226;51.600;8.034;2022-07-23T09:13:52;22.80;99.90
32877;DHT22;19226;51.600;8.034;2022-07-23T09:16:30;22.90;99.90
32877;DHT22;19226;51.600;8.034;2022-07-23T09:18:59;23.00;99.90
32877;DHT22;19226;51.600;8.034;2022-07-23T09:21:28;22.90;99.90
32877;DHT22;19226;51.600;8.034;2022-07-23T09:24:10;22.90;99.90
32877;DHT22;19226;51.600;8.034;2022-07-23T09:26:41;22.90;99.90
32877;DHT22;19226;51.600;8.034;2022-07-23T09:29:13;22.80;99.90
32877;DHT22;19226;51.600;8.034;2022-07-23T09:31:49;22.90;99.90
32877;DHT22;19226;51.600;8.034;2022-07-23T09:34:28;22.90;99.90
32877;DHT22;19226;51.600;8.034;2022-07-23T09:37:13;22.90;99.90
32877;DHT22;19226;51.600;8.034;2022-07-23T09:39:44;22.90;99.90
32877;DHT22;19226;51.600;8.034;2022-07-23T09:42:22;22.90;99.90
32877;DHT22;19226;51.600;8.034;2022-07-23T09:44:54;23.10;99.90
32877;DHT22;19226;51.600;8.034;2022-07-23T09:47:24;23.30;99.90
32877;DHT22;19226;51.600;8.034;2022-07-23T09:50:10;23.60;99.90
32877;DHT22;19226;51.600;8.034;2022-07-23T09:52:45;23.70;99.90
32877;DHT22;19226;51.600;8.034;2022-07-23T09:55:14;23.80;99.90
32877;DHT22;19226;51.600;8.034;2022-07-23T09:57:41;23.90;99.90
32877;DHT22;19226;51.600;8.034;2022-07-23T10:00:11;23.90;99.90
32877;DHT22;19226;51.600;8.034;2022-07-23T10:02:39;24.00;99.90
32877;DHT22;19226;51.600;8.034;2022-07-23T10:05:28;24.20;99.90
32877;DHT22;19226;51.600;8.034;2022-07-23T10:08:18;24.30;99.90
32877;DHT22;19226;51.600;8.034;2022-07-23T10:10:54;24.40;99.90
32877;DHT22;19226;51.600;8.034;2022-07-23T10:13:21;24.50;99.90
32877;DHT22;19226;51.600;8.034;2022-07-23T10:16:06;24.50;99.90
32877;DHT22;19226;51.600;8.034;2022-07-23T10:18:33;24.40;99.90
32877;DHT22;19226;51.600;8.034;2022-07-23T10:21:05;24.50;99.90
32877;DHT22;19226;51.600;8.034;2022-07-23T10:23:47;24.70;99.90
32877;DHT22;19226;51.600;8.034;2022-07-23T10:26:43;24.60;99.90
32877;DHT22;19226;51.600;8.034;2022-07-23T10:32:14;24.80;99.90
32877;DHT22;19226;51.600;8.034;2022-07-23T10:35:53;24.80;99.90
32877;DHT22;19226;51.600;8.034;2022-07-23T10:38:42;24.80;99.90
32877;DHT22;19226;51.600;8.034;2022-07-23T10:41:09;25.00;99.90
32877;DHT22;19226;51.600;8.034;2022-07-23T10:43:40;25.20;99.90
32877;DHT22;19226;51.600;8.034;2022-07-23T10:46:24;25.30;99.90
32877;DHT22;19226;51.600;8.034;2022-07-23T10:49:29;25.20;99.90
32877;DHT22;19226;51.600;8.034;2022-07-23T10:52:21;25.00;99.90
32877;DHT22;19226;51.600;8.034;2022-07-23T10:55:38;25.00;99.90
32877;DHT22;19226;51.600;8.034;2022-07-23T10:57:51;25.10;99.90
32877;DHT22;19226;51.600;8.034;2022-07-23T11:00:25;25.10;99.90
32877;DHT22;19226;51.600;8.034;2022-07-23T11:02:53;25.30;99.90
32877;DHT22;19226;51.600;8.034;2022-07-23T11:05:24;25.50;99.90
32877;DHT22;19226;51.600;8.034;2022-07-23T11:10:40;26.00;99.90
32877;DHT22;19226;51.600;8.034;2022-07-23T11:16:17;26.10;99.90
32877;DHT22;19226;51.600;8.034;2022-07-23T11:24:07;26.10;99.90
32877;DHT22;19226;51.600;8.034;2022-07-23T11:37:04;26.70;99.90
32877;DHT22;19226;51.600;8.034;2022-07-23T11:39:31;26.50;99.90
32877;DHT22;19226;51.600;8.034;2022-07-23T11:42:00;26.70;99.90
32877;DHT22;19226;51.600;8.034;2022-07-23T11:44:31;26.80;99.90
32877;DHT22;19226;51.600;8.034;2022-07-23T11:47:00;26.80;99.90
32877;DHT22;19226;51.600;8.034;2022-07-23T11:49:30;27.00;99.90
32877;DHT22;19226;51.600;8.034;2022-07-23T11:52:13;27.20;99.90
32877;DHT22;19226;51.600;8.034;2022-07-23T11:54:52;27.40;99.90
32877;DHT22;19226;51.600;8.034;2022-07-23T11:57:25;27.30;99.90
32877;DHT22;19226;51.600;8.034;2022-07-23T11:59:55;27.40;99.90
32877;DHT22;19226;51.600;8.034;2022-07-23T12:02:22;27.30;99.90
32877;DHT22;19226;51.600;8.034;2022-07-23T12:04:49;27.40;99.90
32877;DHT22;19226;51.600;8.034;2022-07-23T12:07:43;27.70;99.90
32877;DHT22;19226;51.600;8.034;2022-07-23T12:10:22;28.00;99.90
32877;DHT22;19226;51.600;8.034;2022-07-23T12:12:54;28.10;99.90
32877;DHT22;19226;51.600;8.034;2022-07-23T12:15:22;28.20;99.90
32877;DHT22;19226;51.600;8.034;2022-07-23T12:17:51;28.20;99.90
32877;DHT22;19226;51.600;8.034;2022-07-23T12:20:42;28.30;99.90
32877;DHT22;19226;51.600;8.034;2022-07-23T12:23:09;28.30;99.90
32877;DHT22;19226;51.600;8.034;2022-07-23T12:25:44;28.50;99.90
32877;DHT22;19226;51.600;8.034;2022-07-23T12:28:16;28.70;99.90
32877;DHT22;19226;51.600;8.034;2022-07-23T12:30:50;28.90;99.90
32877;DHT22;19226;51.600;8.034;2022-07-23T12:33:23;29.10;99.90
32877;DHT22;19226;51.600;8.034;2022-07-23T12:35:53;29.30;99.90
32877;DHT22;19226;51.600;8.034;2022-07-23T12:38:22;29.50;99.90
32877;DHT22;19226;51.600;8.034;2022-07-23T12:43:28;29.20;99.90
32877;DHT22;19226;51.600;8.034;2022-07-23T12:46:15;29.40;99.90
32877;DHT22;19226;51.600;8.034;2022-07-23T12:51:29;29.40;99.90
32877;DHT22;19226;51.600;8.034;2022-07-23T12:54:06;29.30;99.90
32877;DHT22;19226;51.600;8.034;2022-07-23T12:56:39;29.20;99.90
32877;DHT22;19226;51.600;8.034;2022-07-23T12:59:07;29.30;99.90
32877;DHT22;19226;51.600;8.034;2022-07-23T13:01:40;29.10;99.90
32877;DHT22;19226;51.600;8.034;2022-07-23T13:04:18;29.10;99.90
32877;DHT22;19226;51.600;8.034;2022-07-23T13:06:49;29.30;99.90
32877;DHT22;19226;51.600;8.034;2022-07-23T13:09:18;29.40;99.90
32877;DHT22;19226;51.600;8.034;2022-07-23T13:11:46;29.60;99.90
32877;DHT22;19226;51.600;8.034;2022-07-23T13:14:16;29.50;99.90
32877;DHT22;19226;51.600;8.034;2022-07-23T13:16:46;29.50;99.90
32877;DHT22;19226;51.600;8.034;2022-07-23T13:19:12;29.50;99.90
32877;DHT22;19226;51.600;8.034;2022-07-23T13:21:40;29.60;99.90
32877;DHT22;19226;51.600;8.034;2022-07-23T13:24:10;29.70;99.90
32877;DHT22;19226;51.600;8.034;2022-07-23T13:26:42;29.50;99.90
32877;DHT22;19226;51.600;8.034;2022-07-23T13:29:09;29.70;99.90
32877;DHT22;19226;51.600;8.034;2022-07-23T13:31:36;29.80;99.90
32877;DHT22;19226;51.600;8.034;2022-07-23T13:34:03;29.70;99.90
32877;DHT22;19226;51.600;8.034;2022-07-23T13:36:33;29.60;99.90
32877;DHT22;19226;51.600;8.034;2022-07-23T13:39:18;29.70;99.90
32877;DHT22;19226;51.600;8.034;2022-07-23T13:41:44;29.70;99.90
32877;DHT22;19226;51.600;8.034;2022-07-23T13:44:10;29.60;99.90
32877;DHT22;19226;51.600;8.034;2022-07-23T13:46:37;29.80;99.90
32877;DHT22;19226;51.600;8.034;2022-07-23T13:49:03;29.90;99.90
32877;DHT22;19226;51.600;8.034;2022-07-23T13:51:31;29.90;99.90
32877;DHT22;19226;51.600;8.034;2022-07-23T13:53:59;29.90;99.90
32877;DHT22;19226;51.600;8.034;2022-07-23T13:56:25;29.80;99.90
32877;DHT22;19226;51.600;8.034;2022-07-23T13:58:51;29.80;99.90
32877;DHT22;19226;51.600;8.034;2022-07-23T14:01:17;30.00;99.90
32877;DHT22;19226;51.600;8.034;2022-07-23T14:03:43;30.20;99.90
32877;DHT22;19226;51.600;8.034;2022-07-23T14:06:09;30.10;99.90
32877;DHT22;19226;51.600;8.034;2022-07-23T14:08:36;30.30;99.90
32877;DHT22;19226;51.600;8.034;2022-07-23T14:11:02;30.20;99.90
32877;DHT22;19226;51.600;8.034;2022-07-23T14:13:29;30.20;99.90
32877;DHT22;19226;51.600;8.034;2022-07-23T14:15:55;30.40;99.90
32877;DHT22;19226;51.600;8.034;2022-07-23T14:18:23;30.60;99.90
32877;DHT22;19226;51.600;8.034;2022-07-23T14:20:51;30.70;99.90
32877;DHT22;19226;51.600;8.034;2022-07-23T14:23:17;30.80;99.90
32877;DHT22;19226;51.600;8.034;2022-07-23T14:25:43;30.70;99.40
32877;DHT22;19226;51.600;8.034;2022-07-23T14:28:09;30.60;99.80
32877;DHT22;19226;51.600;8.034;2022-07-23T14:30:38;30.50;99.60
32877;DHT22;19226;51.600;8.034;2022-07-23T14:33:04;30.70;99.90
32877;DHT22;19226;51.600;8.034;2022-07-23T14:35:31;30.90;99.80
32877;DHT22;19226;51.600;8.034;2022-07-23T14:37:57;31.10;99.80
32877;DHT22;19226;51.600;8.034;2022-07-23T14:40:24;31.00;98.60
32877;DHT22;19226;51.600;8.034;2022-07-23T14:42:56;31.00;98.70
32877;DHT22;19226;51.600;8.034;2022-07-23T14:45:47;30.80;96.90
32877;DHT22;19226;51.600;8.034;2022-07-23T14:48:14;30.70;97.50
32877;DHT22;19226;51.600;8.034;2022-07-23T14:50:40;30.30;98.00
32877;DHT22;19226;51.600;8.034;2022-07-23T14:53:06;30.10;98.00
32877;DHT22;19226;51.600;8.034;2022-07-23T14:55:33;30.30;99.90
32877;DHT22;19226;51.600;8.034;2022-07-23T14:57:59;30.60;99.00
32877;DHT22;19226;51.600;8.034;2022-07-23T15:00:27;30.70;97.40
32877;DHT22;19226;51.600;8.034;2022-07-23T15:03:00;30.40;97.00
32877;DHT22;19226;51.600;8.034;2022-07-23T15:05:28;30.40;97.00
32877;DHT22;19226;51.600;8.034;2022-07-23T15:07:55;30.50;98.10
32877;DHT22;19226;51.600;8.034;2022-07-23T15:10:23;30.80;96.70
32877;DHT22;19226;51.600;8.034;2022-07-23T15:12:49;30.40;96.40
32877;DHT22;19226;51.600;8.034;2022-07-23T15:15:15;30.70;98.80
32877;DHT22;19226;51.600;8.034;2022-07-23T15:17:41;30.80;97.30
32877;DHT22;19226;51.600;8.034;2022-07-23T15:20:09;31.00;97.20
32877;DHT22;19226;51.600;8.034;2022-07-23T15:22:35;31.00;97.50
32877;DHT22;19226;51.600;8.034;2022-07-23T15:25:04;31.00;96.80
32877;DHT22;19226;51.600;8.034;2022-07-23T15:27:30;30.90;95.10
32877;DHT22;19226;51.600;8.034;2022-07-23T15:29:58;30.60;94.90
32877;DHT22;19226;51.600;8.034;2022-07-23T15:32:24;30.40;95.00
32877;DHT22;19226;51.600;8.034;2022-07-23T15:34:55;30.40;94.30
32877;DHT22;19226;51.600;8.034;2022-07-23T15:37:22;30.50;96.20
32877;DHT22;19226;51.600;8.034;2022-07-23T15:39:51;30.80;96.80
32877;DHT22;19226;51.600;8.034;2022-07-23T15:42:17;31.10;96.30
32877;DHT22;19226;51.600;8.034;2022-07-23T15:44:44;31.20;95.40
32877;DHT22;19226;51.600;8.034;2022-07-23T15:47:15;31.30;94.80
32877;DHT22;19226;51.600;8.034;2022-07-23T15:49:42;31.40;92.90
32877;DHT22;19226;51.600;8.034;2022-07-23T15:52:10;31.30;94.80
32877;DHT22;19226;51.600;8.034;2022-07-23T15:54:38;31.10;93.30
32877;DHT22;19226;51.600;8.034;2022-07-23T15:57:08;31.20;93.10
32877;DHT22;19226;51.600;8.034;2022-07-23T15:59:34;31.10;93.70
32877;DHT22;19226;51.600;8.034;2022-07-23T16:02:01;31.10;92.20
32877;DHT22;19226;51.600;8.034;2022-07-23T16:04:27;31.20;93.00
32877;DHT22;19226;51.600;8.034;2022-07-23T16:06:54;30.80;92.30
32877;DHT22;19226;51.600;8.034;2022-07-23T16:09:23;30.40;93.10
32877;DHT22;19226;51.600;8.034;2022-07-23T16:11:50;30.30;92.30
32877;DHT22;19226;51.600;8.034;2022-07-23T16:14:16;30.20;93.80
32877;DHT22;19226;51.600;8.034;2022-07-23T16:16:44;30.40;94.70
32877;DHT22;19226;51.600;8.034;2022-07-23T16:19:10;30.60;94.00
32877;DHT22;19226;51.600;8.034;2022-07-23T16:21:38;30.60;94.40
32877;DHT22;19226;51.600;8.034;2022-07-23T16:24:05;30.70;94.60
32877;DHT22;19226;51.600;8.034;2022-07-23T16:26:31;30.90;93.40
32877;DHT22;19226;51.600;8.034;2022-07-23T16:28:58;30.90;92.20
32877;DHT22;19226;51.600;8.034;2022-07-23T16:31:24;30.60;93.60